createdAt,value
2017-12-11T00:00:31.464Z,0
2017-12-11T00:01:31.470Z,0
2017-12-11T00:02:31.697Z,0
2017-12-11T00:03:31.681Z,0
2017-12-11T00:04:31.390Z,0
2017-12-11T00:05:31.372Z,0
2017-12-11T00:06:31.633Z,0
2017-12-11T00:07:31.343Z,0
2017-12-11T00:08:31.353Z,0
2017-12-11T00:09:31.308Z,0
2017-12-11T00:10:31.562Z,0
2017-12-11T00:11:31.276Z,0
2017-12-11T00:12:31.534Z,0
2017-12-11T00:13:31.511Z,0
2017-12-11T00:14:31.225Z,0
2017-12-11T00:15:31.225Z,0
2017-12-11T00:16:31.193Z,0
2017-12-11T00:17:31.458Z,0
2017-12-11T00:18:31.433Z,0
2017-12-11T00:19:31.142Z,0
2017-12-11T00:20:31.420Z,0
2017-12-11T00:21:31.382Z,0
2017-12-11T00:22:31.092Z,0
2017-12-11T00:23:31.078Z,0
2017-12-11T00:24:31.331Z,0
2017-12-11T00:25:31.044Z,0
2017-12-11T00:26:31.298Z,0
2017-12-11T00:27:31.011Z,0
2017-12-11T00:28:31.265Z,0
2017-12-11T00:29:30.997Z,0
2017-12-11T00:30:30.972Z,0
2017-12-11T00:31:30.944Z,0
2017-12-11T00:32:30.931Z,0
2017-12-11T00:33:31.187Z,0
2017-12-11T00:34:30.896Z,0
2017-12-11T00:35:30.899Z,0
2017-12-11T00:36:30.863Z,0
2017-12-11T00:37:31.129Z,0
2017-12-11T00:38:31.100Z,0
2017-12-11T00:39:30.812Z,0
2017-12-11T00:40:30.800Z,0
2017-12-11T00:41:31.053Z,0
2017-12-11T00:42:30.763Z,0
2017-12-11T00:43:30.750Z,0
2017-12-11T00:44:30.732Z,0
2017-12-11T00:45:30.722Z,0
2017-12-11T00:46:30.700Z,0
2017-12-11T00:47:30.683Z,0
2017-12-11T00:48:30.671Z,0
2017-12-11T00:49:30.673Z,0
2017-12-11T00:50:30.906Z,0
2017-12-11T00:51:30.887Z,0
2017-12-11T00:52:30.604Z,0
2017-12-11T00:53:30.657Z,0
2017-12-11T00:54:30.570Z,0
2017-12-11T00:55:30.833Z,0
2017-12-11T00:56:30.539Z,0
2017-12-11T00:57:30.547Z,0
2017-12-11T00:58:30.505Z,0
2017-12-11T00:59:30.488Z,0
2017-12-11T01:00:30.742Z,0
2017-12-11T01:01:30.724Z,0
2017-12-11T01:02:30.448Z,0
2017-12-11T01:03:30.444Z,0
2017-12-11T01:04:30.697Z,0
2017-12-11T01:05:30.393Z,0
2017-12-11T01:06:30.373Z,0
2017-12-11T01:07:30.375Z,0
2017-12-11T01:08:30.342Z,0
2017-12-11T01:09:30.328Z,0
2017-12-11T01:10:30.580Z,0
2017-12-11T01:11:30.567Z,0
2017-12-11T01:12:30.283Z,0
2017-12-11T01:13:30.263Z,0
2017-12-11T01:14:30.519Z,0
2017-12-11T01:15:30.503Z,0
2017-12-11T01:16:30.214Z,0
2017-12-11T01:17:30.197Z,0
2017-12-11T01:18:30.455Z,0
2017-12-11T01:19:30.182Z,0
2017-12-11T01:20:30.148Z,0
2017-12-11T01:21:30.135Z,0
2017-12-11T01:22:30.391Z,0
2017-12-11T01:23:30.374Z,0
2017-12-11T01:24:30.086Z,0
2017-12-11T01:25:30.069Z,0
2017-12-11T01:26:30.346Z,0
2017-12-11T01:27:30.309Z,0
2017-12-11T01:28:30.024Z,0
2017-12-11T01:29:30.274Z,0
2017-12-11T01:30:30.261Z,0
2017-12-11T01:31:30.249Z,0
2017-12-11T01:32:30.254Z,0
2017-12-11T01:33:29.941Z,0
2017-12-11T01:34:29.930Z,0
2017-12-11T01:35:30.179Z,0
2017-12-11T01:36:30.165Z,0
2017-12-11T01:37:29.877Z,0
2017-12-11T01:38:29.861Z,0
2017-12-11T01:39:29.844Z,0
2017-12-11T01:40:30.107Z,0
2017-12-11T01:41:29.812Z,0
2017-12-11T01:42:29.823Z,0
2017-12-11T01:43:30.301Z,0
2017-12-11T01:44:30.142Z,0
2017-12-11T01:45:30.102Z,0
2017-12-11T01:46:30.045Z,0
2017-12-11T01:47:29.991Z,0
2017-12-11T01:48:29.701Z,0
2017-12-11T01:49:29.707Z,0
2017-12-11T01:50:29.939Z,0
2017-12-11T01:51:29.654Z,0
2017-12-11T01:52:29.635Z,0
2017-12-11T01:53:29.635Z,0
2017-12-11T01:54:29.604Z,0
2017-12-11T01:55:29.587Z,0
2017-12-11T01:56:29.583Z,0
2017-12-11T01:57:29.566Z,0
2017-12-11T01:58:29.564Z,0
2017-12-11T01:59:29.800Z,0
2017-12-11T02:00:29.779Z,0
2017-12-11T02:01:29.780Z,0
2017-12-11T02:02:29.746Z,0
2017-12-11T02:03:29.741Z,0
2017-12-11T02:04:29.444Z,0
2017-12-11T02:05:29.720Z,0
2017-12-11T02:06:29.704Z,0
2017-12-11T02:07:29.396Z,0
2017-12-11T02:08:29.406Z,0
2017-12-11T02:09:29.365Z,0
2017-12-11T02:10:29.351Z,0
2017-12-11T02:11:29.333Z,0
2017-12-11T02:12:29.335Z,0
2017-12-11T02:13:29.302Z,0
2017-12-11T02:14:29.285Z,0
2017-12-11T02:15:29.270Z,0
2017-12-11T02:16:29.257Z,0
2017-12-11T02:17:29.237Z,0
2017-12-11T02:18:29.222Z,0
2017-12-11T02:19:29.206Z,0
2017-12-11T02:20:29.191Z,0
2017-12-11T02:21:29.446Z,0
2017-12-11T02:22:29.159Z,0
2017-12-11T02:23:29.144Z,0
2017-12-11T02:24:29.404Z,0
2017-12-11T02:25:29.381Z,0
2017-12-11T02:26:29.376Z,0
2017-12-11T02:27:29.081Z,0
2017-12-11T02:28:29.335Z,0
2017-12-11T02:29:29.047Z,0
2017-12-11T02:30:29.032Z,0
2017-12-11T02:31:29.374Z,0
2017-12-11T02:32:28.999Z,0
2017-12-11T02:33:28.984Z,0
2017-12-11T02:34:28.988Z,0
2017-12-11T02:35:28.951Z,0
2017-12-11T02:36:28.957Z,0
2017-12-11T02:37:28.927Z,0
2017-12-11T02:38:28.905Z,0
2017-12-11T02:39:28.892Z,0
2017-12-11T02:40:29.187Z,0
2017-12-11T02:41:28.857Z,0
2017-12-11T02:42:29.111Z,0
2017-12-11T02:43:28.827Z,0
2017-12-11T02:44:29.082Z,0
2017-12-11T02:45:29.159Z,0
2017-12-11T02:46:29.062Z,0
2017-12-11T02:47:29.034Z,0
2017-12-11T02:48:29.022Z,0
2017-12-11T02:49:29.002Z,0
2017-12-11T02:50:28.737Z,0
2017-12-11T02:51:28.699Z,0
2017-12-11T02:52:28.689Z,0
2017-12-11T02:53:28.685Z,0
2017-12-11T02:54:28.657Z,0
2017-12-11T02:55:28.635Z,0
2017-12-11T02:56:28.622Z,0
2017-12-11T02:57:28.605Z,0
2017-12-11T02:58:28.593Z,0
2017-12-11T02:59:28.845Z,0
2017-12-11T03:00:28.557Z,0
2017-12-11T03:01:28.814Z,0
2017-12-11T03:02:28.526Z,0
2017-12-11T03:03:28.782Z,0
2017-12-11T03:04:28.511Z,0
2017-12-11T03:05:28.749Z,0
2017-12-11T03:06:28.464Z,0
2017-12-11T03:07:28.448Z,0
2017-12-11T03:08:28.430Z,0
2017-12-11T03:09:28.416Z,0
2017-12-11T03:10:28.694Z,0
2017-12-11T03:11:28.382Z,0
2017-12-11T03:12:28.368Z,0
2017-12-11T03:13:28.375Z,0
2017-12-11T03:14:28.338Z,0
2017-12-11T03:15:28.341Z,0
2017-12-11T03:16:28.309Z,0
2017-12-11T03:17:28.295Z,0
2017-12-11T03:18:28.551Z,0
2017-12-11T03:19:28.535Z,0
2017-12-11T03:20:28.335Z,0
2017-12-11T03:21:28.503Z,0
2017-12-11T03:22:28.212Z,0
2017-12-11T03:23:28.466Z,0
2017-12-11T03:24:28.180Z,0
2017-12-11T03:25:28.169Z,0
2017-12-11T03:26:28.441Z,0
2017-12-11T03:27:28.425Z,0
2017-12-11T03:28:28.387Z,0
2017-12-11T03:29:28.373Z,0
2017-12-11T03:30:28.106Z,0
2017-12-11T03:31:28.385Z,0
2017-12-11T03:32:28.335Z,0
2017-12-11T03:33:28.321Z,0
2017-12-11T03:34:28.293Z,0
2017-12-11T03:35:28.005Z,0
2017-12-11T03:36:28.005Z,0
2017-12-11T03:37:28.244Z,0
2017-12-11T03:38:27.967Z,0
2017-12-11T03:39:28.212Z,0
2017-12-11T03:40:27.925Z,0
2017-12-11T03:41:27.909Z,0
2017-12-11T03:42:27.902Z,0
2017-12-11T03:43:27.874Z,0
2017-12-11T03:44:27.861Z,0
2017-12-11T03:45:28.115Z,0
2017-12-11T03:46:28.107Z,0
2017-12-11T03:47:28.085Z,0
2017-12-11T03:48:28.070Z,0
2017-12-11T03:49:27.803Z,0
2017-12-11T03:50:27.765Z,0
2017-12-11T03:51:27.749Z,0
2017-12-11T03:52:27.732Z,0
2017-12-11T03:53:27.715Z,0
2017-12-11T03:54:27.703Z,0
2017-12-11T03:55:27.706Z,0
2017-12-11T03:56:27.673Z,0
2017-12-11T03:57:27.927Z,0
2017-12-11T03:58:27.914Z,0
2017-12-11T03:59:27.620Z,0
2017-12-11T04:00:27.605Z,0
2017-12-11T04:01:27.596Z,0
2017-12-11T04:02:27.575Z,0
2017-12-11T04:03:27.558Z,0
2017-12-11T04:04:27.540Z,0
2017-12-11T04:05:27.859Z,0
2017-12-11T04:06:27.508Z,0
2017-12-11T04:07:27.767Z,0
2017-12-11T04:08:27.747Z,0
2017-12-11T04:09:27.464Z,0
2017-12-11T04:10:27.734Z,0
2017-12-11T04:11:27.429Z,0
2017-12-11T04:12:27.411Z,0
2017-12-11T04:13:27.399Z,0
2017-12-11T04:14:27.653Z,0
2017-12-11T04:15:27.648Z,0
2017-12-11T04:16:27.622Z,0
2017-12-11T04:17:27.332Z,0
2017-12-11T04:18:27.330Z,0
2017-12-11T04:19:27.301Z,0
2017-12-11T04:20:27.284Z,0
2017-12-11T04:21:27.543Z,0
2017-12-11T04:22:27.524Z,0
2017-12-11T04:23:27.513Z,0
2017-12-11T04:24:27.223Z,0
2017-12-11T04:25:27.205Z,0
2017-12-11T04:26:27.190Z,0
2017-12-11T04:27:27.172Z,0
2017-12-11T04:28:27.434Z,0
2017-12-11T04:29:27.416Z,0
2017-12-11T04:30:27.406Z,0
2017-12-11T04:31:27.382Z,0
2017-12-11T04:32:27.115Z,0
2017-12-11T04:33:27.352Z,0
2017-12-11T04:34:27.061Z,0
2017-12-11T04:35:27.063Z,0
2017-12-11T04:36:27.028Z,0
2017-12-11T04:37:27.075Z,0
2017-12-11T04:38:27.269Z,0
2017-12-11T04:39:27.254Z,0
2017-12-11T04:40:26.963Z,0
2017-12-11T04:41:26.958Z,0
2017-12-11T04:42:26.934Z,0
2017-12-11T04:43:26.918Z,0
2017-12-11T04:44:26.913Z,0
2017-12-11T04:45:26.886Z,0
2017-12-11T04:46:26.875Z,0
2017-12-11T04:47:26.854Z,0
2017-12-11T04:48:26.840Z,0
2017-12-11T04:49:26.823Z,0
2017-12-11T04:50:26.810Z,0
2017-12-11T04:51:26.802Z,0
2017-12-11T04:52:26.775Z,0
2017-12-11T04:53:26.762Z,0
2017-12-11T04:54:26.751Z,0
2017-12-11T04:55:26.728Z,0
2017-12-11T04:56:26.733Z,0
2017-12-11T04:57:26.695Z,0
2017-12-11T04:58:26.704Z,0
2017-12-11T04:59:26.668Z,0
2017-12-11T05:00:26.921Z,0
2017-12-11T05:01:26.905Z,0
2017-12-11T05:02:26.898Z,0
2017-12-11T05:03:26.599Z,0
2017-12-11T05:04:26.585Z,0
2017-12-11T05:05:26.590Z,0
2017-12-11T05:06:26.558Z,0
2017-12-11T05:07:26.544Z,0
2017-12-11T05:08:26.794Z,0
2017-12-11T05:09:26.777Z,0
2017-12-11T05:10:26.779Z,0
2017-12-11T05:11:26.747Z,0
2017-12-11T05:12:26.729Z,0
2017-12-11T05:13:26.469Z,0
2017-12-11T05:14:26.713Z,0
2017-12-11T05:15:26.683Z,0
2017-12-11T05:16:26.396Z,0
2017-12-11T05:17:26.380Z,0
2017-12-11T05:18:26.641Z,0
2017-12-11T05:19:26.631Z,0
2017-12-11T05:20:26.607Z,0
2017-12-11T05:21:26.320Z,0
2017-12-11T05:22:26.316Z,0
2017-12-11T05:23:26.287Z,0
2017-12-11T05:24:26.555Z,0
2017-12-11T05:25:26.253Z,0
2017-12-11T05:26:26.244Z,0
2017-12-11T05:27:26.230Z,0
2017-12-11T05:28:26.217Z,0
2017-12-11T05:29:26.501Z,0
2017-12-11T05:30:26.449Z,0
2017-12-11T05:31:26.435Z,0
2017-12-11T05:32:26.146Z,0
2017-12-11T05:33:26.131Z,0
2017-12-11T05:34:26.114Z,0
2017-12-11T05:35:26.096Z,0
2017-12-11T05:36:26.083Z,0
2017-12-11T05:37:26.069Z,0
2017-12-11T05:38:26.325Z,0
2017-12-11T05:39:26.035Z,0
2017-12-11T05:40:26.021Z,0
2017-12-11T05:41:26.022Z,0
2017-12-11T05:42:25.987Z,0
2017-12-11T05:43:26.260Z,0
2017-12-11T05:44:25.957Z,0
2017-12-11T05:45:25.939Z,0
2017-12-11T05:46:25.928Z,0
2017-12-11T05:47:26.186Z,0
2017-12-11T05:48:25.896Z,0
2017-12-11T05:49:25.877Z,0
2017-12-11T05:50:25.863Z,0
2017-12-11T05:51:25.851Z,0
2017-12-11T05:52:25.833Z,0
2017-12-11T05:53:25.816Z,0
2017-12-11T05:54:25.803Z,0
2017-12-11T05:55:25.799Z,0
2017-12-11T05:56:25.772Z,0
2017-12-11T05:57:26.029Z,0
2017-12-11T05:58:26.037Z,0
2017-12-11T05:59:25.724Z,0
2017-12-11T06:00:25.706Z,0
2017-12-11T06:01:25.700Z,0
2017-12-11T06:02:25.693Z,0
2017-12-11T06:03:25.951Z,0
2017-12-11T06:04:25.644Z,0
2017-12-11T06:05:25.651Z,0
2017-12-11T06:06:25.627Z,0
2017-12-11T06:07:25.595Z,0
2017-12-11T06:08:25.579Z,0
2017-12-11T06:09:25.836Z,0
2017-12-11T06:10:25.572Z,0
2017-12-11T06:11:25.806Z,0
2017-12-11T06:12:25.520Z,0
2017-12-11T06:13:25.503Z,0
2017-12-11T06:14:25.509Z,0
2017-12-11T06:15:25.473Z,0
2017-12-11T06:16:25.456Z,0
2017-12-11T06:17:25.444Z,0
2017-12-11T06:18:25.695Z,0
2017-12-11T06:19:25.680Z,0
2017-12-11T06:20:25.666Z,0
2017-12-11T06:21:25.377Z,0
2017-12-11T06:22:25.656Z,0
2017-12-11T06:23:25.354Z,0
2017-12-11T06:24:25.335Z,0
2017-12-11T06:25:25.322Z,0
2017-12-11T06:26:25.574Z,0
2017-12-11T06:27:25.283Z,0
2017-12-11T06:28:25.266Z,0
2017-12-11T06:29:25.250Z,0
2017-12-11T06:30:25.239Z,0
2017-12-11T06:31:25.224Z,0
2017-12-11T06:32:25.202Z,0
2017-12-11T06:33:25.189Z,0
2017-12-11T06:34:25.174Z,0
2017-12-11T06:35:25.156Z,0
2017-12-11T06:36:25.413Z,0
2017-12-11T06:37:25.130Z,0
2017-12-11T06:38:25.378Z,0
2017-12-11T06:39:25.098Z,0
2017-12-11T06:40:25.344Z,0
2017-12-11T06:41:25.063Z,0
2017-12-11T06:42:25.046Z,0
2017-12-11T06:43:25.298Z,0
2017-12-11T06:44:25.283Z,0
2017-12-11T06:45:24.995Z,0
2017-12-11T06:46:24.982Z,0
2017-12-11T06:47:24.966Z,0
2017-12-11T06:48:25.219Z,0
2017-12-11T06:49:24.942Z,0
2017-12-11T06:50:24.917Z,0
2017-12-11T06:51:24.909Z,0
2017-12-11T06:52:24.886Z,0
2017-12-11T06:53:24.875Z,0
2017-12-11T06:54:24.854Z,0
2017-12-11T06:55:25.108Z,0
2017-12-11T06:56:24.837Z,0
2017-12-11T06:57:24.804Z,0
2017-12-11T06:58:25.059Z,0
2017-12-11T06:59:25.045Z,0
2017-12-11T07:00:25.027Z,0
2017-12-11T07:01:24.744Z,0
2017-12-11T07:02:24.727Z,0
2017-12-11T07:03:24.764Z,0
2017-12-11T07:04:24.693Z,0
2017-12-11T07:05:24.676Z,0
2017-12-11T07:06:24.661Z,0
2017-12-11T07:07:24.647Z,0
2017-12-11T07:08:24.628Z,0
2017-12-11T07:09:24.897Z,0
2017-12-11T07:10:24.599Z,0
2017-12-11T07:11:24.581Z,0
2017-12-11T07:12:24.839Z,0
2017-12-11T07:13:24.549Z,0
2017-12-11T07:14:24.553Z,0
2017-12-11T07:15:24.785Z,0
2017-12-11T07:16:24.500Z,0
2017-12-11T07:17:24.484Z,0
2017-12-11T07:18:24.476Z,0
2017-12-11T07:19:24.452Z,0
2017-12-11T07:20:24.434Z,0
2017-12-11T07:21:24.716Z,0
2017-12-11T07:22:24.673Z,0
2017-12-11T07:23:24.387Z,0
2017-12-11T07:24:24.667Z,0
2017-12-11T07:25:24.353Z,0
2017-12-11T07:26:24.336Z,0
2017-12-11T07:27:24.321Z,0
2017-12-11T07:28:24.303Z,0
2017-12-11T07:29:24.289Z,0
2017-12-11T07:30:24.551Z,0
2017-12-11T07:31:24.258Z,0
2017-12-11T07:32:24.241Z,0
2017-12-11T07:33:24.225Z,0
2017-12-11T07:34:24.208Z,0
2017-12-11T07:35:24.193Z,0
2017-12-11T07:36:24.177Z,0
2017-12-11T07:37:24.159Z,0
2017-12-11T07:38:24.143Z,0
2017-12-11T07:39:24.398Z,0
2017-12-11T07:40:24.110Z,0
2017-12-11T07:41:24.100Z,0
2017-12-11T07:42:24.349Z,0
2017-12-11T07:43:24.063Z,0
2017-12-11T07:44:24.072Z,0
2017-12-11T07:45:24.306Z,0
2017-12-11T07:46:24.285Z,0
2017-12-11T07:47:23.999Z,0
2017-12-11T07:48:23.983Z,0
2017-12-11T07:49:23.966Z,0
2017-12-11T07:50:24.224Z,0
2017-12-11T07:51:23.935Z,0
2017-12-11T07:52:23.919Z,0
2017-12-11T07:53:23.909Z,0
2017-12-11T07:54:23.886Z,0
2017-12-11T07:55:24.140Z,0
2017-12-11T07:56:24.129Z,0
2017-12-11T07:57:24.111Z,0
2017-12-11T07:58:23.837Z,0
2017-12-11T07:59:24.086Z,0
2017-12-11T08:00:23.791Z,0
2017-12-11T08:01:23.799Z,0
2017-12-11T08:02:24.029Z,0
2017-12-11T08:03:24.022Z,0
2017-12-11T08:04:23.725Z,0
2017-12-11T08:05:23.746Z,0
2017-12-11T08:06:23.693Z,0
2017-12-11T08:07:23.675Z,0
2017-12-11T08:08:23.662Z,0
2017-12-11T08:09:23.647Z,0
2017-12-11T08:10:23.630Z,0
2017-12-11T08:11:23.614Z,0
2017-12-11T08:12:23.596Z,0
2017-12-11T08:13:23.582Z,0
2017-12-11T08:14:23.568Z,0
2017-12-11T08:15:23.550Z,0
2017-12-11T08:16:23.809Z,0
2017-12-11T08:17:23.789Z,0
2017-12-11T08:18:23.776Z,0
2017-12-11T08:19:23.761Z,0
2017-12-11T08:20:23.742Z,0
2017-12-11T08:21:23.729Z,0
2017-12-11T08:22:23.711Z,0
2017-12-11T08:23:23.424Z,0
2017-12-11T08:24:23.407Z,0
2017-12-11T08:25:23.393Z,0
2017-12-11T08:26:23.376Z,0
2017-12-11T08:27:23.360Z,0
2017-12-11T08:28:23.344Z,0
2017-12-11T08:29:23.327Z,0
2017-12-11T08:30:23.588Z,0
2017-12-11T08:31:23.296Z,0
2017-12-11T08:32:23.280Z,0
2017-12-11T08:33:23.263Z,0
2017-12-11T08:34:23.246Z,0
2017-12-11T08:35:23.254Z,0
2017-12-11T08:36:23.214Z,0
2017-12-11T08:37:23.200Z,0
2017-12-11T08:38:23.184Z,0
2017-12-11T08:39:23.169Z,0
2017-12-11T08:40:23.422Z,0
2017-12-11T08:41:23.138Z,0
2017-12-11T08:42:23.399Z,0
2017-12-11T08:43:23.106Z,0
2017-12-11T08:44:23.361Z,0
2017-12-11T08:45:23.346Z,0
2017-12-11T08:46:23.061Z,0
2017-12-11T08:47:23.317Z,0
2017-12-11T08:48:23.032Z,0
2017-12-11T08:49:23.029Z,0
2017-12-11T08:50:22.995Z,0
2017-12-11T08:51:23.251Z,0
2017-12-11T08:52:23.236Z,0
2017-12-11T08:53:23.220Z,0
2017-12-11T08:54:22.950Z,0
2017-12-11T08:55:22.913Z,0
2017-12-11T08:56:22.904Z,0
2017-12-11T08:57:22.920Z,0
2017-12-11T08:58:23.165Z,0
2017-12-11T08:59:23.126Z,0
2017-12-11T09:00:22.837Z,0
2017-12-11T09:01:22.823Z,0
2017-12-11T09:02:22.809Z,0
2017-12-11T09:03:23.068Z,0
2017-12-11T09:04:22.774Z,0
2017-12-11T09:05:22.759Z,0
2017-12-11T09:06:23.023Z,0
2017-12-11T09:07:22.999Z,0
2017-12-11T09:08:22.721Z,0
2017-12-11T09:09:22.969Z,0
2017-12-11T09:10:22.682Z,0
2017-12-11T09:11:22.670Z,0
2017-12-11T09:12:22.924Z,0
2017-12-11T09:13:22.673Z,0
2017-12-11T09:14:22.621Z,0
2017-12-11T09:15:22.937Z,0
2017-12-11T09:16:22.590Z,0
2017-12-11T09:17:22.847Z,0
2017-12-11T09:18:22.834Z,0
2017-12-11T09:19:22.544Z,0
2017-12-11T09:20:22.798Z,0
2017-12-11T09:21:22.511Z,0
2017-12-11T09:22:22.771Z,0
2017-12-11T09:23:22.752Z,0
2017-12-11T09:24:22.480Z,0
2017-12-11T09:25:22.727Z,0
2017-12-11T09:26:22.437Z,0
2017-12-11T09:27:22.709Z,0
2017-12-11T09:28:22.403Z,0
2017-12-11T09:29:22.390Z,0
2017-12-11T09:30:22.372Z,0
2017-12-11T09:31:22.357Z,0
2017-12-11T09:32:22.344Z,0
2017-12-11T09:33:22.600Z,0
2017-12-11T09:34:22.313Z,0
2017-12-11T09:35:22.579Z,0
2017-12-11T09:36:22.282Z,0
2017-12-11T09:37:22.269Z,0
2017-12-11T09:38:22.520Z,0
2017-12-11T09:39:22.237Z,0
2017-12-11T09:40:22.510Z,0
2017-12-11T09:41:22.204Z,0
2017-12-11T09:42:22.191Z,0
2017-12-11T09:43:22.178Z,0
2017-12-11T09:44:22.431Z,0
2017-12-11T09:45:22.420Z,0
2017-12-11T09:46:22.129Z,0
2017-12-11T09:47:22.113Z,0
2017-12-11T09:48:22.372Z,0
2017-12-11T09:49:22.356Z,0
2017-12-11T09:50:22.342Z,0
2017-12-11T09:51:22.079Z,0
2017-12-11T09:52:22.041Z,0
2017-12-11T09:53:22.023Z,0
2017-12-11T09:54:22.280Z,0
2017-12-11T09:55:22.270Z,0
2017-12-11T09:56:22.264Z,0
2017-12-11T09:57:22.237Z,0
2017-12-11T09:58:21.950Z,0
2017-12-11T09:59:21.950Z,0
2017-12-11T10:00:21.920Z,0
2017-12-11T10:01:22.192Z,0
2017-12-11T10:02:21.889Z,0
2017-12-11T10:03:21.876Z,0
2017-12-11T10:04:21.860Z,0
2017-12-11T10:05:21.846Z,0
2017-12-11T10:06:22.123Z,0
2017-12-11T10:07:21.817Z,0
2017-12-11T10:08:21.800Z,0
2017-12-11T10:09:21.784Z,0
2017-12-11T10:10:21.769Z,0
2017-12-11T10:11:22.205Z,0
2017-12-11T10:12:22.015Z,0
2017-12-11T10:13:21.726Z,0
2017-12-11T10:14:21.710Z,0
2017-12-11T10:15:21.695Z,0
2017-12-11T10:16:21.959Z,0
2017-12-11T10:17:21.665Z,0
2017-12-11T10:18:21.654Z,0
2017-12-11T10:19:21.637Z,0
2017-12-11T10:20:21.893Z,0
2017-12-11T10:21:21.878Z,0
2017-12-11T10:22:21.865Z,0
2017-12-11T10:23:21.846Z,0
2017-12-11T10:24:21.834Z,0
2017-12-11T10:25:21.547Z,0
2017-12-11T10:26:21.529Z,0
2017-12-11T10:27:21.516Z,0
2017-12-11T10:28:21.772Z,0
2017-12-11T10:29:21.489Z,0
2017-12-11T10:30:21.471Z,0
2017-12-11T10:31:21.457Z,0
2017-12-11T10:32:21.443Z,0
2017-12-11T10:33:21.433Z,0
2017-12-11T10:34:21.414Z,0
2017-12-11T10:35:21.399Z,0
2017-12-11T10:36:21.383Z,0
2017-12-11T10:37:21.369Z,0
2017-12-11T10:38:21.354Z,0
2017-12-11T10:39:21.339Z,0
2017-12-11T10:40:21.325Z,0
2017-12-11T10:41:21.309Z,0
2017-12-11T10:42:21.292Z,0
2017-12-11T10:43:21.280Z,0
2017-12-11T10:44:21.262Z,0
2017-12-11T10:45:21.518Z,0
2017-12-11T10:46:21.507Z,0
2017-12-11T10:47:21.490Z,0
2017-12-11T10:48:21.473Z,0
2017-12-11T10:49:21.188Z,0
2017-12-11T10:50:21.446Z,0
2017-12-11T10:51:21.157Z,0
2017-12-11T10:52:21.143Z,0
2017-12-11T10:53:21.127Z,0
2017-12-11T10:54:21.386Z,0
2017-12-11T10:55:21.119Z,0
2017-12-11T10:56:21.085Z,0
2017-12-11T10:57:21.342Z,0
2017-12-11T10:58:21.341Z,0
2017-12-11T10:59:21.312Z,0
2017-12-11T11:00:21.025Z,0
2017-12-11T11:01:21.282Z,0
2017-12-11T11:02:21.276Z,0
2017-12-11T11:03:21.252Z,0
2017-12-11T11:04:20.966Z,0
2017-12-11T11:05:21.223Z,0
2017-12-11T11:06:20.936Z,0
2017-12-11T11:07:21.192Z,0
2017-12-11T11:08:20.908Z,0
2017-12-11T11:09:20.892Z,0
2017-12-11T11:10:20.879Z,0
2017-12-11T11:11:20.863Z,0
2017-12-11T11:12:21.127Z,0
2017-12-11T11:13:20.833Z,0
2017-12-11T11:14:20.820Z,0
2017-12-11T11:15:20.804Z,0
2017-12-11T11:16:21.065Z,0
2017-12-11T11:17:21.073Z,0
2017-12-11T11:18:20.760Z,0
2017-12-11T11:19:21.043Z,0
2017-12-11T11:20:20.733Z,0
2017-12-11T11:21:20.991Z,0
2017-12-11T11:22:20.974Z,0
2017-12-11T11:23:20.689Z,0
2017-12-11T11:24:20.951Z,0
2017-12-11T11:25:20.658Z,0
2017-12-11T11:26:20.647Z,0
2017-12-11T11:27:20.903Z,0
2017-12-11T11:28:20.615Z,0
2017-12-11T11:29:20.875Z,0
2017-12-11T11:30:20.585Z,0
2017-12-11T11:31:20.574Z,0
2017-12-11T11:32:20.556Z,0
2017-12-11T11:33:20.544Z,0
2017-12-11T11:34:20.802Z,0
2017-12-11T11:35:20.514Z,0
2017-12-11T11:36:20.794Z,0
2017-12-11T11:37:20.487Z,0
2017-12-11T11:38:20.745Z,0
2017-12-11T11:39:20.457Z,0
2017-12-11T11:40:20.441Z,0
2017-12-11T11:41:20.430Z,0
2017-12-11T11:42:20.684Z,0
2017-12-11T11:43:20.400Z,0
2017-12-11T11:44:20.390Z,0
2017-12-11T11:45:20.370Z,0
2017-12-11T11:46:20.627Z,0
2017-12-11T11:47:20.614Z,0
2017-12-11T11:48:20.326Z,0
2017-12-11T11:49:20.329Z,0
2017-12-11T11:50:20.297Z,0
2017-12-11T11:51:20.286Z,0
2017-12-11T11:52:20.270Z,0
2017-12-11T11:53:20.255Z,0
2017-12-11T11:54:20.512Z,0
2017-12-11T11:55:20.228Z,0
2017-12-11T11:56:20.215Z,0
2017-12-11T11:57:20.197Z,0
2017-12-11T11:58:20.183Z,0
2017-12-11T11:59:20.184Z,0
2017-12-11T12:00:20.158Z,0
2017-12-11T12:01:20.141Z,0
2017-12-11T12:02:20.126Z,0
2017-12-11T12:03:20.401Z,0
2017-12-11T12:04:20.376Z,0
2017-12-11T12:05:20.106Z,0
2017-12-11T12:06:20.341Z,0
2017-12-11T12:07:20.057Z,0
2017-12-11T12:08:20.045Z,0
2017-12-11T12:09:20.028Z,0
2017-12-11T12:10:20.016Z,0
2017-12-11T12:11:20.001Z,0
2017-12-11T12:12:20.257Z,0
2017-12-11T12:13:20.259Z,0
2017-12-11T12:14:19.960Z,0
2017-12-11T12:15:19.945Z,0
2017-12-11T12:16:19.933Z,0
2017-12-11T12:17:19.916Z,0
2017-12-11T12:18:20.177Z,0
2017-12-11T12:19:19.897Z,0
2017-12-11T12:20:19.874Z,0
2017-12-11T12:21:20.131Z,0
2017-12-11T12:22:19.851Z,0
2017-12-11T12:23:19.851Z,0
2017-12-11T12:24:19.817Z,0
2017-12-11T12:25:19.804Z,0
2017-12-11T12:26:19.814Z,0
2017-12-11T12:27:20.046Z,0
2017-12-11T12:28:19.762Z,0
2017-12-11T12:29:20.022Z,0
2017-12-11T12:30:20.006Z,0
2017-12-11T12:31:19.721Z,0
2017-12-11T12:32:19.989Z,0
2017-12-11T12:33:19.970Z,0
2017-12-11T12:34:19.681Z,0
2017-12-11T12:35:19.665Z,0
2017-12-11T12:36:19.933Z,0
2017-12-11T12:37:19.909Z,0
2017-12-11T12:38:19.896Z,0
2017-12-11T12:39:19.611Z,0
2017-12-11T12:40:19.873Z,0
2017-12-11T12:41:19.858Z,0
2017-12-11T12:42:19.844Z,0
2017-12-11T12:43:19.564Z,0
2017-12-11T12:44:19.544Z,0
2017-12-11T12:45:19.805Z,0
2017-12-11T12:46:19.517Z,0
2017-12-11T12:47:19.509Z,0
2017-12-11T12:48:19.490Z,0
2017-12-11T12:49:19.495Z,0
2017-12-11T12:50:19.462Z,0
2017-12-11T12:51:19.720Z,0
2017-12-11T12:52:19.435Z,0
2017-12-11T12:53:19.421Z,0
2017-12-11T12:54:19.424Z,0
2017-12-11T12:55:19.664Z,0
2017-12-11T12:56:19.668Z,0
2017-12-11T12:57:19.367Z,0
2017-12-11T12:58:19.355Z,0
2017-12-11T12:59:19.614Z,0
2017-12-11T13:00:19.598Z,0
2017-12-11T13:01:19.312Z,0
2017-12-11T13:02:19.300Z,0
2017-12-11T13:03:19.300Z,0
2017-12-11T13:04:19.542Z,0
2017-12-11T13:05:19.257Z,0
2017-12-11T13:06:19.243Z,0
2017-12-11T13:07:19.228Z,0
2017-12-11T13:08:19.217Z,0
2017-12-11T13:09:19.471Z,0
2017-12-11T13:10:19.188Z,0
2017-12-11T13:11:19.185Z,0
2017-12-11T13:12:19.181Z,0
2017-12-11T13:13:19.417Z,0
2017-12-11T13:14:19.132Z,0
2017-12-11T13:15:19.142Z,0
2017-12-11T13:16:19.106Z,0
2017-12-11T13:17:19.366Z,0
2017-12-11T13:18:19.350Z,0
2017-12-11T13:19:19.067Z,0
2017-12-11T13:20:19.333Z,0
2017-12-11T13:21:19.317Z,0
2017-12-11T13:22:19.054Z,0
2017-12-11T13:23:19.011Z,0
2017-12-11T13:24:19.281Z,0
2017-12-11T13:25:19.254Z,0
2017-12-11T13:26:18.968Z,0
2017-12-11T13:27:18.964Z,0
2017-12-11T13:28:19.219Z,0
2017-12-11T13:29:18.931Z,0
2017-12-11T13:30:19.188Z,0
2017-12-11T13:31:19.173Z,0
2017-12-11T13:32:18.889Z,0
2017-12-11T13:33:19.153Z,0
2017-12-11T13:34:19.132Z,0
2017-12-11T13:35:19.117Z,0
2017-12-11T13:36:18.835Z,0
2017-12-11T13:37:18.821Z,0
2017-12-11T13:38:19.077Z,0
2017-12-11T13:39:18.794Z,0
2017-12-11T13:40:18.782Z,0
2017-12-11T13:41:18.765Z,0
2017-12-11T13:42:18.752Z,0
2017-12-11T13:43:18.740Z,0
2017-12-11T13:44:18.724Z,0
2017-12-11T13:45:18.711Z,0
2017-12-11T13:46:18.698Z,0
2017-12-11T13:47:18.958Z,0
2017-12-11T13:48:18.962Z,0
2017-12-11T13:49:18.658Z,0
2017-12-11T13:50:18.644Z,0
2017-12-11T13:51:18.809Z,0
2017-12-11T13:52:18.613Z,0
2017-12-11T13:53:18.602Z,0
2017-12-11T13:54:18.589Z,0
2017-12-11T13:55:18.573Z,0
2017-12-11T13:56:18.638Z,0
2017-12-11T13:57:18.574Z,0
2017-12-11T13:58:18.702Z,0
2017-12-11T13:59:18.520Z,0
2017-12-11T14:00:18.504Z,0
2017-12-11T14:01:18.489Z,0
2017-12-11T14:02:18.496Z,0
2017-12-11T14:03:18.478Z,0
2017-12-11T14:04:18.470Z,0
2017-12-11T14:05:18.719Z,0
2017-12-11T14:06:18.696Z,0
2017-12-11T14:07:18.431Z,0
2017-12-11T14:08:18.396Z,0
2017-12-11T14:09:18.401Z,0
2017-12-11T14:10:18.483Z,0
2017-12-11T14:11:18.359Z,0
2017-12-11T14:12:18.411Z,0
2017-12-11T14:13:18.324Z,0
2017-12-11T14:14:18.310Z,0
2017-12-11T14:15:18.299Z,0
2017-12-11T14:16:18.289Z,0
2017-12-11T14:17:18.541Z,0
2017-12-11T14:18:18.255Z,0
2017-12-11T14:19:18.530Z,0
2017-12-11T14:20:18.226Z,0
2017-12-11T14:21:18.216Z,0
2017-12-11T14:22:18.215Z,0
2017-12-11T14:23:18.461Z,0
2017-12-11T14:24:18.174Z,0
2017-12-11T14:25:18.160Z,0
2017-12-11T14:26:18.144Z,0
2017-12-11T14:27:18.132Z,0.57
2017-12-11T14:28:18.117Z,0
2017-12-11T14:29:18.102Z,0.66
2017-12-11T14:30:18.363Z,0.85
2017-12-11T14:31:18.076Z,0.85
2017-12-11T14:32:18.069Z,0.28
2017-12-11T14:33:18.046Z,1.51
2017-12-11T14:34:18.050Z,1.8
2017-12-11T14:35:18.017Z,1.23
2017-12-11T14:36:18.301Z,1.7
2017-12-11T14:37:18.262Z,3.13
2017-12-11T14:38:17.978Z,3.41
2017-12-11T14:39:17.961Z,2.66
2017-12-11T14:40:17.949Z,1.99
2017-12-11T14:41:18.389Z,1.8
2017-12-11T14:42:17.920Z,0.76
2017-12-11T14:43:17.906Z,0.38
2017-12-11T14:44:18.165Z,0.28
2017-12-11T14:45:17.876Z,0